Le Raizet Airport, Guadeloupe

3:23 PM AST on September 01, 2014 (GMT -0400)
Le Raizet | Change Station
CLOSE
Current Station
Airport
Location: Le Raizet Airport,
Elevation: 26 ft
Nearby Weather Stations

Elev 26 ft 16.27 °N, 61.53 °W | Updated 23 minutes ago

Rain Showers
Showers Rain
84 °F
Feels Like 91 °F
N
10
Wind Variable Wind from ENE

Today
High -- | Low -- °F
--% Chance of Precip.
Yesterday
High -- | Low -- °F
Precip. -- in
5:52 AM 6:18 PM
Waxing Crescent, 43% visible
Pressure 29.95 in
Visibility 6.2 miles
Clouds Few 1300 ft
Mostly Cloudy 2000 ft
Heat Index 91 °F
Dew Point 73 °F
Humidity 70%
Rainfall 0.00 in
Snow Depth Not available.
UV 5 out of 12
Pollen Not available.
Air Quality Not available.
Flu Activity Not available.
METAR TFFR 011900Z 06009KT 010V090 9999 SHRA FEW013CB BKN020 29/23 Q1014 TEMPO 3000 SHRA

More Conditions Fewer Conditions

Pressure 29.95 in
Visibility 6.2 miles
Clouds Few 1300 ft
Mostly Cloudy 2000 ft
Heat Index 91 °F
Dew Point 73 °F
Humidity 70%
Rainfall 0.00 in
Snow Depth Not available.
UV 5 out of 12
Pollen Not available.
Air Quality Not available.
Flu Activity Not available.
METAR TFFR 011900Z 06009KT 010V090 9999 SHRA FEW013CB BKN020 29/23 Q1014 TEMPO 3000 SHRA

More Conditions Fewer Conditions

10-Day Weather Forecast

Almanac

Astronomy

Sep. 01, 2014 Rise Set
Actual Time 5:52 AM AST 6:18 PM AST
Civil Twilight 5:31 AM AST 6:40 PM AST
Nautical Twilight 5:05 AM AST 7:06 PM AST
Astronomical Twilight 4:39 AM AST 7:31 PM AST
Moon 11:34 AM AST 11:17 PM AST
Length of Visible Light 13h 09m
Length of Day
12h 25m
Tomorrow will be 0m 52s shorter.
Waxing Crescent, 43% of the Moon is Illuminated
Today
Waxing Crescent
Sep 2
First Quarter
Sep 8
Full
Sep 15
Last Quarter
Sep 24
New

Today's Extremes

Country Highs Country Lows

Community

WunderPhotos

Upload Photos

1,749,378 photos uploaded!

WunderBlogs® & News

Nearby

Snow Depth

Not available.

Earthquake Activity

City Distance Mag. Time & Date
No recent earthquake activity has been reported nearby.
Minimum magnitude displayed is 2.5.

Coastal Water Temperatures

Place Temperature
No Stations Reporting

Nearby Weather Stations